Time;durP1;ratioP1;P1;durP2;ratioP2;P2;SDS_P1;SDS_P2;PMS_P1;PMS_P2;Temp;Humidity;BMP_temperature;BMP_pressure;BME280_temperature;BME280_humidity;BME280_pressure;Samples;Min_cycle;Max_cycle;Signal;HPM_P1;HPM_P2
2022/11/30 00:00:21;;;;;;;36.55;24.73;;;;;;;7.14;100.00;100824.69;5019916;28;20691;-74
2022/11/30 00:02:48;;;;;;;41.72;27.27;;;;;;;7.16;100.00;100823.75;5009208;28;20199;-74
2022/11/30 00:05:15;;;;;;;38.63;22.70;;;;;;;7.19;100.00;100818.34;5032511;23;20237;-75
2022/11/30 00:07:41;;;;;;;42.15;24.75;;;;;;;7.19;100.00;100818.34;5056017;28;20212;-75
2022/11/30 00:10:09;;;;;;;39.75;23.70;;;;;;;7.19;100.00;100818.34;5071585;28;20212;-74
2022/11/30 00:12:36;;;;;;;38.05;24.15;;;;;;;7.21;100.00;100824.53;5054977;28;20193;-74
2022/11/30 00:15:04;;;;;;;34.72;22.83;;;;;;;7.20;100.00;100821.88;5036707;28;20561;-73
2022/11/30 00:17:30;;;;;;;41.08;24.30;;;;;;;7.19;100.00;100818.34;5035527;28;20205;-72
2022/11/30 00:19:57;;;;;;;39.55;24.48;;;;;;;7.21;100.00;100820.94;5060416;28;20211;-75
2022/11/30 00:22:23;;;;;;;40.88;25.13;;;;;;;7.14;100.00;100819.34;5052460;28;20201;-74
2022/11/30 00:24:50;;;;;;;51.65;30.35;;;;;;;7.20;100.00;100821.88;5058435;28;20266;-73
2022/11/30 00:27:16;;;;;;;35.90;24.55;;;;;;;7.21;100.00;100824.53;5058761;28;20224;-73
2022/11/30 00:29:44;;;;;;;40.72;24.55;;;;;;;7.20;100.00;100822.75;5064223;28;20216;-74
2022/11/30 00:32:11;;;;;;;38.60;24.30;;;;;;;7.23;100.00;100816.44;5058451;28;20252;-75
2022/11/30 00:34:38;;;;;;;39.35;23.27;;;;;;;7.16;100.00;100813.03;5065164;28;20208;-72
2022/11/30 00:37:04;;;;;;;33.45;23.52;;;;;;;7.14;100.00;100812.19;5066640;28;20218;-76
2022/11/30 00:39:31;;;;;;;38.45;23.50;;;;;;;7.15;100.00;100807.72;5067880;28;20204;-74
2022/11/30 00:41:57;;;;;;;35.95;21.10;;;;;;;7.12;100.00;100808.66;5054692;28;20285;-76
2022/11/30 00:44:24;;;;;;;39.83;24.77;;;;;;;7.10;100.00;100810.53;5054008;28;20669;-74
2022/11/30 00:46:52;;;;;;;38.92;22.30;;;;;;;7.10;100.00;100813.19;5058886;28;20227;-74
2022/11/30 00:49:18;;;;;;;41.72;24.63;;;;;;;7.10;100.00;100818.56;5059939;28;20575;-74
2022/11/30 00:51:45;;;;;;;37.95;23.27;;;;;;;7.12;100.00;100816.69;5055913;28;20201;-74
2022/11/30 00:54:11;;;;;;;39.88;25.25;;;;;;;7.11;100.00;100817.63;5043078;28;20197;-74
2022/11/30 00:56:38;;;;;;;37.15;22.70;;;;;;;7.12;100.00;100813.13;5035657;28;20220;-73
2022/11/30 00:59:05;;;;;;;36.40;22.45;;;;;;;7.09;100.00;100811.41;5034355;28;20225;-74
2022/11/30 01:01:31;;;;;;;38.72;25.02;;;;;;;7.08;100.00;100807.88;5048371;28;20200;-73
2022/11/30 01:03:59;;;;;;;37.35;23.38;;;;;;;7.08;100.00;100807.88;5047019;28;20201;-74
2022/11/30 01:06:26;;;;;;;36.10;21.88;;;;;;;7.06;100.00;100811.50;5059953;28;20304;-72
2022/11/30 01:08:52;;;;;;;37.35;22.60;;;;;;;7.08;100.00;100807.00;5041099;28;20217;-74
2022/11/30 01:11:23;;;;;;;35.58;25.10;;;;;;;7.05;100.00;100809.72;5049064;28;20220;-74
2022/11/30 01:13:49;;;;;;;40.75;25.85;;;;;;;7.05;100.00;100821.31;5041905;28;20197;-75
2022/11/30 01:16:19;;;;;;;42.00;24.58;;;;;;;7.10;100.00;100823.91;5052066;28;20303;-74
2022/11/30 01:18:46;;;;;;;44.17;24.17;;;;;;;7.11;100.00;100822.97;5044057;28;20201;-73
2022/11/30 01:21:17;;;;;;;40.75;25.40;;;;;;;7.12;100.00;100826.53;5045514;28;20193;-75
2022/11/30 01:23:44;;;;;;;37.25;23.42;;;;;;;7.14;100.00;100820.22;5058576;28;20193;-74
2022/11/30 01:26:11;;;;;;;39.75;21.95;;;;;;;7.12;100.00;100814.00;5057655;28;20249;-72
2022/11/30 01:28:39;;;;;;;38.75;23.50;;;;;;;7.14;100.00;100813.97;5061751;28;20197;-74
2022/11/30 01:31:08;;;;;;;37.00;22.90;;;;;;;7.06;100.00;100809.69;5059774;28;20284;-74
2022/11/30 01:33:36;;;;;;;32.00;20.38;;;;;;;7.12;100.00;100813.13;5058252;28;20200;-74
2022/11/30 01:36:05;;;;;;;34.75;20.17;;;;;;;7.12;100.00;100816.69;5054411;28;20239;-73
2022/11/30 01:38:35;;;;;;;42.42;21.08;;;;;;;7.13;100.00;100818.47;5059015;28;20200;-74
2022/11/30 01:41:01;;;;;;;33.92;21.10;;;;;;;7.09;100.00;100816.78;5055551;28;20198;-74
2022/11/30 01:43:39;;;;;;;35.72;21.35;;;;;;;7.11;100.00;100814.94;5059481;28;20234;-74
2022/11/30 01:46:17;;;;;;;41.35;21.30;;;;;;;7.12;100.00;100816.69;5057671;28;20291;-74
2022/11/30 01:48:44;;;;;;;34.08;21.85;;;;;;;7.09;100.00;100822.13;5056877;28;20276;-75
2022/11/30 01:51:11;;;;;;;33.38;22.40;;;;;;;7.12;100.00;100816.69;5068122;28;20565;-74
2022/11/30 01:53:39;;;;;;;37.42;22.65;;;;;;;7.12;100.00;100819.38;5042316;28;20212;-75
2022/11/30 01:56:06;;;;;;;37.45;23.17;;;;;;;7.13;100.00;100821.16;5053526;28;20598;-76
2022/11/30 01:58:35;;;;;;;39.20;21.80;;;;;;;7.15;100.00;100822.00;5046605;28;20208;-73
2022/11/30 02:01:02;;;;;;;34.42;22.70;;;;;;;7.18;100.00;100819.22;5057041;28;20194;-75
2022/11/30 02:03:36;;;;;;;34.28;21.00;;;;;;;7.19;100.00;100820.09;5044102;28;20208;-74
2022/11/30 02:06:02;;;;;;;35.55;22.33;;;;;;;7.16;100.00;100817.50;5041997;28;20213;-72
2022/11/30 02:08:31;;;;;;;32.00;21.23;;;;;;;7.20;100.00;100821.88;5054679;28;20207;-74
2022/11/30 02:11:04;;;;;;;38.38;21.58;;;;;;;7.22;100.00;100833.44;5059158;28;20228;-75
2022/11/30 02:13:44;;;;;;;37.53;21.98;;;;;;;7.19;100.00;100830.81;5057672;28;20210;-74
2022/11/30 02:16:20;;;;;;;37.40;21.17;;;;;;;7.21;100.00;100835.25;5057187;28;20248;-74
2022/11/30 02:18:55;;;;;;;36.20;22.20;;;;;;;7.23;100.00;100835.19;5047692;28;20201;-74
2022/11/30 02:21:25;;;;;;;34.35;21.52;;;;;;;7.25;100.00;100831.56;5059636;28;20193;-73
2022/11/30 02:24:23;;;;;;;35.58;21.13;;;;;;;7.26;100.00;100830.66;5058586;28;20200;-73
2022/11/30 02:27:03;;;;;;;30.23;19.83;;;;;;;7.24;100.00;100831.59;5060215;28;20672;-74
2022/11/30 02:29:33;;;;;;;33.72;22.08;;;;;;;7.23;100.00;100817.31;5050941;28;20331;-72
2022/11/30 02:32:05;;;;;;;31.42;21.52;;;;;;;7.22;100.00;100822.72;5061998;28;20269;-73
2022/11/30 02:34:35;;;;;;;33.70;19.98;;;;;;;7.22;100.00;100833.44;5063712;28;20205;-75
2022/11/30 02:37:03;;;;;;;30.77;21.05;;;;;;;7.25;100.00;100828.00;5060697;28;20290;-74
2022/11/30 02:39:29;;;;;;;32.65;20.08;;;;;;;7.22;100.00;100828.09;5057523;28;20678;-75
2022/11/30 02:41:56;;;;;;;31.45;21.67;;;;;;;7.22;100.00;100836.13;5051096;28;20194;-76
2022/11/30 02:44:23;;;;;;;34.08;20.70;;;;;;;7.21;100.00;100839.69;5059559;28;20198;-73
2022/11/30 02:47:01;;;;;;;37.28;22.05;;;;;;;7.19;100.00;100838.84;5065432;28;20228;-74
2022/11/30 02:49:36;;;;;;;38.40;21.90;;;;;;;7.16;100.00;100829.09;5064132;28;20196;-75
2022/11/30 02:52:05;;;;;;;34.85;20.58;;;;;;;7.16;100.00;100829.09;5044672;28;20232;-74
2022/11/30 02:54:32;;;;;;;34.05;21.13;;;;;;;7.20;100.00;100836.16;5062121;28;20201;-75
2022/11/30 02:56:58;;;;;;;36.30;21.23;;;;;;;7.14;100.00;100833.59;5060726;28;20236;-74
2022/11/30 02:59:25;;;;;;;34.80;20.92;;;;;;;7.11;100.00;100836.38;5050300;28;20212;-75
2022/11/30 03:01:53;;;;;;;32.13;20.63;;;;;;;7.13;100.00;100831.88;5060204;28;20200;-74
2022/11/30 03:04:19;;;;;;;31.75;21.80;;;;;;;7.16;100.00;100829.09;5064289;28;20320;-76
2022/11/30 03:06:46;;;;;;;36.42;22.33;;;;;;;7.18;100.00;100832.63;5056947;28;20682;-74
2022/11/30 03:09:13;;;;;;;32.55;21.02;;;;;;;7.20;100.00;100836.16;5067556;28;20211;-74
2022/11/30 03:11:39;;;;;;;33.42;20.80;;;;;;;7.22;100.00;100836.13;5063381;28;20557;-74
2022/11/30 03:14:06;;;;;;;32.88;21.60;;;;;;;7.22;100.00;100837.00;5066155;28;20685;-74
2022/11/30 03:16:32;;;;;;;39.80;21.05;;;;;;;7.23;100.00;100846.78;5064787;28;20308;-75
2022/11/30 03:19:00;;;;;;;30.33;19.60;;;;;;;7.23;100.00;100844.09;5063302;28;20208;-74
2022/11/30 03:21:28;;;;;;;33.05;20.65;;;;;;;7.25;100.00;100834.22;5060231;28;20635;-74
2022/11/30 03:23:54;;;;;;;31.75;19.95;;;;;;;7.25;100.00;100842.25;5059319;28;20574;-73
2022/11/30 03:26:21;;;;;;;37.53;21.25;;;;;;;7.24;100.00;100843.19;5061656;28;20228;-75
2022/11/30 03:28:48;;;;;;;30.70;19.23;;;;;;;7.26;100.00;100841.38;5056838;28;20282;-75
2022/11/30 03:31:14;;;;;;;27.35;19.60;;;;;;;7.24;100.00;100845.88;5055511;28;20666;-74
2022/11/30 03:33:41;;;;;;;32.80;21.13;;;;;;;7.25;100.00;100844.06;5055578;28;20254;-74
2022/11/30 03:36:11;;;;;;;34.35;19.63;;;;;;;7.27;100.00;100850.28;5060435;28;20578;-75
2022/11/30 03:38:37;;;;;;;35.50;21.27;;;;;;;7.24;100.00;100845.00;5060777;28;20200;-75
2022/11/30 03:41:06;;;;;;;34.88;21.65;;;;;;;7.24;100.00;100848.56;5058443;28;20193;-75
2022/11/30 03:43:33;;;;;;;34.90;21.50;;;;;;;7.24;100.00;100847.69;5056810;28;20711;-76
2022/11/30 03:45:59;;;;;;;33.20;20.77;;;;;;;7.21;100.00;100854.00;5063508;28;20225;-75
2022/11/30 03:48:26;;;;;;;37.55;21.45;;;;;;;7.21;100.00;100850.41;5059200;28;20577;-75
2022/11/30 03:50:53;;;;;;;30.33;20.58;;;;;;;7.21;100.00;100848.66;5056130;28;20229;-74
2022/11/30 03:53:23;;;;;;;29.98;19.13;;;;;;;7.21;100.00;100845.06;5057008;28;20592;-75
2022/11/30 03:55:52;;;;;;;30.73;19.83;;;;;;;7.23;100.00;100844.09;5067382;28;20230;-75
2022/11/30 03:58:18;;;;;;;32.17;20.40;;;;;;;7.27;100.00;100844.91;5042359;28;20221;-75
2022/11/30 04:00:45;;;;;;;33.38;19.48;;;;;;;7.24;100.00;100847.69;5051796;28;20212;-75
2022/11/30 04:03:11;;;;;;;28.80;18.65;;;;;;;7.25;100.00;100850.31;5046671;28;20198;-75
2022/11/30 04:05:39;;;;;;;32.78;19.88;;;;;;;7.25;100.00;100847.63;5037146;28;20229;-74
2022/11/30 04:08:06;;;;;;;34.83;19.42;;;;;;;7.27;100.00;100848.47;5035768;28;20218;-75
2022/11/30 04:10:33;;;;;;;30.23;19.08;;;;;;;7.24;100.00;100848.56;5038905;28;20212;-75
2022/11/30 04:13:00;;;;;;;34.78;19.45;;;;;;;7.23;100.00;100852.13;5053726;28;20211;-75
2022/11/30 04:15:27;;;;;;;35.70;19.83;;;;;;;7.26;100.00;100859.25;5049544;28;20224;-73
2022/11/30 04:17:53;;;;;;;29.75;19.20;;;;;;;7.24;100.00;100853.03;5065816;28;20199;-73
2022/11/30 04:20:20;;;;;;;35.33;21.48;;;;;;;7.23;100.00;100852.13;5074817;28;20250;-73
2022/11/30 04:22:46;;;;;;;31.17;20.13;;;;;;;7.23;100.00;100845.91;5048498;28;20584;-76
2022/11/30 04:25:13;;;;;;;36.90;20.40;;;;;;;7.21;100.00;100856.69;5053722;28;20223;-75
2022/11/30 04:27:40;;;;;;;29.85;19.70;;;;;;;7.26;100.00;100854.75;5056884;28;20224;-75
2022/11/30 04:30:08;;;;;;;29.67;18.92;;;;;;;7.27;100.00;100861.00;5053744;28;20201;-75
2022/11/30 04:32:35;;;;;;;30.67;19.02;;;;;;;7.27;100.00;100858.31;5055926;28;20211;-75
2022/11/30 04:35:01;;;;;;;33.88;21.20;;;;;;;7.26;100.00;100857.44;5068817;28;20231;-73
2022/11/30 04:37:28;;;;;;;31.25;19.23;;;;;;;7.22;100.00;100861.09;5060490;28;20207;-74
2022/11/30 04:39:54;;;;;;;32.22;21.05;;;;;;;7.21;100.00;100864.72;5052709;28;20232;-74
2022/11/30 04:42:21;;;;;;;33.55;20.83;;;;;;;7.26;100.00;100857.44;5051136;28;20193;-74
2022/11/30 04:44:49;;;;;;;39.15;22.05;;;;;;;7.27;100.00;100859.19;5059744;28;20722;-74
2022/11/30 04:47:15;;;;;;;31.65;20.58;;;;;;;7.30;100.00;100858.22;5064320;28;20228;-74
2022/11/30 04:49:42;;;;;;;38.92;19.48;;;;;;;7.30;100.00;100859.13;5052325;28;20203;-74
2022/11/30 04:52:09;;;;;;;41.55;20.25;;;;;;;7.35;100.00;100859.03;5057283;28;20569;-73
2022/11/30 04:54:35;;;;;;;36.38;18.42;;;;;;;7.35;100.00;100858.13;5054777;28;20304;-73
2022/11/30 04:57:02;;;;;;;34.15;18.23;;;;;;;7.36;100.00;100859.88;5064082;28;20245;-71
2022/11/30 04:59:28;;;;;;;31.55;18.33;;;;;;;7.37;100.00;100858.97;5071777;28;20197;-73
2022/11/30 05:01:56;;;;;;;36.28;20.35;;;;;;;7.39;100.00;100854.44;5071845;28;20283;-72
2022/11/30 05:04:22;;;;;;;33.58;19.05;;;;;;;7.43;100.00;100861.50;5072310;28;20269;-74
2022/11/30 05:06:49;;;;;;;35.78;19.33;;;;;;;7.44;100.00;100863.25;5056260;28;20233;-74
2022/11/30 05:09:15;;;;;;;35.80;19.50;;;;;;;7.47;100.00;100866.75;5076968;28;20228;-74
2022/11/30 05:11:42;;;;;;;36.15;19.33;;;;;;;7.47;100.00;100865.88;5070501;28;20193;-75
2022/11/30 05:14:09;;;;;;;32.58;18.50;;;;;;;7.49;100.00;100858.66;5059814;28;20197;-74
2022/11/30 05:16:35;;;;;;;35.08;18.75;;;;;;;7.52;100.00;100864.81;5070144;28;20234;-74
2022/11/30 05:19:03;;;;;;;33.33;18.85;;;;;;;7.50;100.00;100868.44;5069807;28;20190;-73
2022/11/30 05:21:30;;;;;;;27.88;17.88;;;;;;;7.55;100.00;100865.66;5073055;28;20207;-75
2022/11/30 05:23:56;;;;;;;59.67;34.53;;;;;;;7.50;100.00;100869.31;5077153;28;20198;-74
2022/11/30 05:26:23;;;;;;;58.90;29.60;;;;;;;7.51;100.00;100865.75;5061942;28;20653;-72
2022/11/30 05:28:49;;;;;;;38.20;20.48;;;;;;;7.51;100.00;100873.78;5060877;28;20227;-73
2022/11/30 05:31:16;;;;;;;37.80;22.33;;;;;;;7.54;100.00;100875.50;5065153;28;20285;-74
2022/11/30 05:33:43;;;;;;;37.58;22.10;;;;;;;7.51;100.00;100879.16;5072196;28;20207;-73
2022/11/30 05:36:13;;;;;;;41.60;20.98;;;;;;;7.52;100.00;100874.66;5071906;28;20713;-72
2022/11/30 05:38:39;;;;;;;36.15;18.95;;;;;;;7.49;100.00;100870.25;5044367;28;20221;-72
2022/11/30 05:41:06;;;;;;;34.38;20.35;;;;;;;7.50;100.00;100882.72;5069213;28;20199;-73
2022/11/30 05:43:32;;;;;;;33.78;19.63;;;;;;;7.51;100.00;100879.16;5070891;28;20220;-73
2022/11/30 05:46:00;;;;;;;31.77;18.30;;;;;;;7.54;100.00;100877.31;5068906;28;20226;-73
2022/11/30 05:48:27;;;;;;;41.80;20.15;;;;;;;7.52;100.00;100872.84;5073226;28;20217;-73
2022/11/30 05:50:53;;;;;;;31.65;19.85;;;;;;;7.57;100.00;100879.91;5070630;28;20194;-74
2022/11/30 05:53:21;;;;;;;36.95;19.20;;;;;;;7.55;100.00;100882.63;5066445;28;20228;-75
2022/11/30 05:55:48;;;;;;;32.40;18.42;;;;;;;7.57;100.00;100886.13;5075257;28;20264;-76
2022/11/30 05:58:15;;;;;;;32.72;19.88;;;;;;;7.55;100.00;100890.66;5072983;28;20260;-76
2022/11/30 06:00:41;;;;;;;37.42;20.77;;;;;;;7.52;100.00;100882.69;5073202;28;20341;-73
2022/11/30 06:03:07;;;;;;;36.45;19.00;;;;;;;7.46;100.00;100890.88;5084248;28;20197;-73
2022/11/30 06:05:35;;;;;;;38.53;21.55;;;;;;;7.48;100.00;100886.38;5092493;23;20233;-75
2022/11/30 06:08:02;;;;;;;31.70;19.42;;;;;;;7.44;100.00;100882.00;5042610;28;20232;-76
2022/11/30 06:10:30;;;;;;;36.10;19.95;;;;;;;7.48;100.00;100889.97;5054832;28;20265;-76
2022/11/30 06:12:57;;;;;;;40.38;20.75;;;;;;;7.47;100.00;100890.84;5056218;28;20204;-76
2022/11/30 06:15:23;;;;;;;39.42;20.45;;;;;;;7.49;100.00;100885.47;5051695;28;20212;-75
2022/11/30 06:17:50;;;;;;;36.50;20.33;;;;;;;7.51;100.00;100880.97;5020230;28;20200;-76
2022/11/30 06:20:16;;;;;;;34.38;20.15;;;;;;;7.49;100.00;100888.16;5016927;28;20289;-78
2022/11/30 06:22:46;;;;;;;37.33;21.13;;;;;;;7.50;100.00;100889.91;5020627;28;20287;-76
2022/11/30 06:25:13;;;;;;;32.70;19.35;;;;;;;7.53;100.00;100892.53;5012234;28;20198;-76
2022/11/30 06:27:42;;;;;;;35.15;21.42;;;;;;;7.55;100.00;100885.28;5026817;28;20214;-77
2022/11/30 06:30:10;;;;;;;34.40;20.55;;;;;;;7.55;100.00;100893.34;5035888;28;20213;-74
2022/11/30 06:32:36;;;;;;;40.33;22.02;;;;;;;7.53;100.00;100895.19;5035482;28;20289;-75
2022/11/30 06:35:03;;;;;;;40.38;22.90;;;;;;;7.57;100.00;100907.59;5035383;28;20206;-75
2022/11/30 06:37:33;;;;;;;44.20;20.75;;;;;;;7.60;100.00;100898.59;5035440;28;20304;-76
2022/11/30 06:39:59;;;;;;;44.45;25.20;;;;;;;7.61;100.00;100905.72;5035898;28;20676;-76
2022/11/30 06:42:28;;;;;;;70.03;38.03;;;;;;;7.61;100.00;100905.72;5037444;28;20308;-76
2022/11/30 06:44:56;;;;;;;42.30;24.00;;;;;;;7.61;100.00;100898.56;5035634;28;20229;-77
2022/11/30 06:47:22;;;;;;;47.30;21.30;;;;;;;7.59;100.00;100903.06;5035962;28;20696;-78
2022/11/30 06:49:49;;;;;;;36.78;20.08;;;;;;;7.56;100.00;100907.66;5035485;28;20201;-78
2022/11/30 06:52:16;;;;;;;38.90;20.63;;;;;;;7.59;100.00;100910.22;5036493;28;20656;-79
2022/11/30 06:54:42;;;;;;;41.53;22.25;;;;;;;7.57;100.00;100910.25;5035615;28;20197;-76
2022/11/30 06:57:09;;;;;;;43.50;20.77;;;;;;;7.61;100.00;100908.41;5034344;28;20226;-76
2022/11/30 06:59:36;;;;;;;36.35;20.80;;;;;;;7.62;100.00;100905.69;5035187;28;20205;-75
2022/11/30 07:02:04;;;;;;;38.30;19.27;;;;;;;7.64;100.00;100911.91;5042259;28;20198;-77
2022/11/30 07:04:30;;;;;;;40.88;21.40;;;;;;;7.66;100.00;100909.16;5046903;28;20213;-75
2022/11/30 07:06:57;;;;;;;46.70;20.58;;;;;;;7.68;100.00;100912.69;5036152;28;20316;-76
2022/11/30 07:09:23;;;;;;;34.88;20.33;;;;;;;7.71;100.00;100915.28;5034712;28;20589;-78
2022/11/30 07:11:50;;;;;;;44.53;24.13;;;;;;;7.71;100.00;100907.22;5035515;28;20279;-76
2022/11/30 07:14:16;;;;;;;39.00;21.95;;;;;;;7.74;100.00;100912.53;5035933;28;20609;-76
2022/11/30 07:16:43;;;;;;;41.97;22.13;;;;;;;7.75;100.00;100926.81;5034908;28;20222;-75
2022/11/30 07:19:11;;;;;;;34.88;19.60;;;;;;;7.79;100.00;100923.16;5034807;28;20664;-76
2022/11/30 07:21:37;;;;;;;34.72;19.52;;;;;;;7.75;100.00;100916.97;5036782;28;20338;-78
2022/11/30 07:26:48;;;;;;;44.35;22.30;;;;;;;7.77;100.00;100920.50;5040297;28;20229;-75
2022/11/30 07:29:15;;;;;;;43.40;20.83;;;;;;;7.78;100.00;100922.28;5042463;28;20292;-76
2022/11/30 07:31:42;;;;;;;37.60;22.20;;;;;;;7.75;100.00;100916.09;5042918;28;20229;-75
2022/11/30 07:34:10;;;;;;;35.58;20.75;;;;;;;7.78;100.00;100918.69;5040637;28;20304;-75
2022/11/30 07:36:38;;;;;;;39.28;20.90;;;;;;;7.82;100.00;100921.25;5035854;28;20288;-75
2022/11/30 07:39:05;;;;;;;34.15;20.40;;;;;;;7.84;100.00;100921.22;5038759;28;20201;-76
2022/11/30 07:41:31;;;;;;;30.60;19.50;;;;;;;7.85;100.00;100921.19;5038803;28;20292;-75
2022/11/30 07:43:58;;;;;;;33.97;20.85;;;;;;;7.88;100.00;100928.28;5038643;28;20285;-77
2022/11/30 07:46:25;;;;;;;39.15;21.90;;;;;;;7.87;100.00;100926.53;5041255;28;20228;-75
2022/11/30 07:48:51;;;;;;;35.42;21.83;;;;;;;7.82;100.00;100926.59;5038706;28;20260;-75
2022/11/30 07:51:20;;;;;;;35.67;19.83;;;;;;;7.86;100.00;100930.97;5038011;28;20213;-77
2022/11/30 07:53:48;;;;;;;35.80;19.88;;;;;;;7.91;100.00;100926.41;5036217;28;20202;-77
2022/11/30 07:56:17;;;;;;;32.95;19.52;;;;;;;7.94;100.00;100930.81;5037108;28;20313;-75
2022/11/30 07:58:45;;;;;;;30.08;18.95;;;;;;;7.97;100.00;100932.50;5036333;28;20296;-75
2022/11/30 08:01:14;;;;;;;32.55;18.83;;;;;;;8.00;100.00;100935.09;5035024;28;20202;-76
2022/11/30 08:03:40;;;;;;;31.45;18.95;;;;;;;8.01;100.00;100935.06;5035861;28;20213;-77
2022/11/30 08:06:10;;;;;;;30.58;19.27;;;;;;;8.02;100.00;100935.94;5035373;28;20241;-77
2022/11/30 08:08:38;;;;;;;32.00;19.40;;;;;;;8.06;100.00;100934.97;5034192;28;20249;-77
2022/11/30 08:11:07;;;;;;;29.98;18.42;;;;;;;8.10;100.00;100934.84;5033367;28;20292;-76
2022/11/30 08:13:34;;;;;;;30.80;19.05;;;;;;;8.15;100.00;100927.53;5034068;28;20600;-75
2022/11/30 08:16:02;;;;;;;27.27;18.08;;;;;;;8.18;100.00;100931.06;5033538;28;20224;-76
2022/11/30 08:18:28;;;;;;;33.15;18.40;;;;;;;8.21;100.00;100933.66;5033261;28;20214;-77
2022/11/30 08:20:59;;;;;;;28.20;18.00;;;;;;;8.21;100.00;100934.56;5033612;28;20223;-76
2022/11/30 08:23:27;;;;;;;27.95;17.50;;;;;;;8.21;100.00;100941.69;5033430;28;20214;-74
2022/11/30 08:25:54;;;;;;;33.00;19.83;;;;;;;8.23;100.00;100939.84;5033435;28;20217;-77
2022/11/30 08:28:22;;;;;;;29.85;18.15;;;;;;;8.20;100.00;100938.13;5032740;28;20218;-76
2022/11/30 08:30:48;;;;;;;30.50;17.83;;;;;;;8.21;100.00;100939.00;5034230;28;20213;-76
2022/11/30 08:33:15;;;;;;;25.10;17.00;;;;;;;8.23;100.00;100946.13;5033104;28;20198;-78
2022/11/30 08:35:41;;;;;;;29.45;17.27;;;;;;;8.17;100.00;100948.97;5033248;28;20324;-75
2022/11/30 08:38:08;;;;;;;32.08;17.70;;;;;;;8.21;100.00;100939.00;5032685;28;20702;-76
2022/11/30 08:40:35;;;;;;;29.80;17.90;;;;;;;8.25;100.00;100941.56;5033700;28;20212;-76
2022/11/30 08:43:01;;;;;;;28.45;17.02;;;;;;;8.28;100.00;100941.50;5033712;28;20249;-75
2022/11/30 08:45:29;;;;;;;27.52;17.80;;;;;;;8.30;100.00;100936.97;5033173;28;20283;-77
2022/11/30 08:47:56;;;;;;;24.95;16.33;;;;;;;8.33;100.00;100939.56;5032155;28;20312;-77
2022/11/30 08:50:22;;;;;;;28.48;17.48;;;;;;;8.38;100.00;100944.81;5033673;28;20206;-76
2022/11/30 08:52:48;;;;;;;24.75;16.65;;;;;;;8.40;100.00;100943.00;5036418;28;20206;-76
2022/11/30 08:55:15;;;;;;;31.92;16.75;;;;;;;8.42;100.00;100948.34;5036365;28;20583;-75
2022/11/30 08:57:42;;;;;;;24.33;14.63;;;;;;;8.40;100.00;100947.47;5033120;28;20630;-76
2022/11/30 09:00:10;;;;;;;23.75;15.25;;;;;;;8.41;100.00;100944.78;5032799;28;20220;-75
2022/11/30 09:02:38;;;;;;;25.67;15.07;;;;;;;8.43;100.00;100950.97;5032901;28;20707;-75
2022/11/30 09:05:05;;;;;;;31.88;16.50;;;;;;;8.44;100.00;100952.72;5033067;28;20279;-76
2022/11/30 09:07:32;;;;;;;23.75;14.65;;;;;;;8.42;100.00;100957.25;5033287;28;20236;-76
2022/11/30 09:09:59;;;;;;;21.80;14.30;;;;;;;8.39;100.00;100964.47;5033678;28;20206;-76
2022/11/30 09:12:25;;;;;;;24.33;14.48;;;;;;;8.37;100.00;100967.22;5033170;28;20544;-75
2022/11/30 09:14:52;;;;;;;25.70;15.23;;;;;;;8.40;100.00;100966.25;5032551;28;20206;-78
2022/11/30 09:17:19;;;;;;;25.35;15.77;;;;;;;8.43;100.00;100955.44;5031979;28;20228;-76
2022/11/30 09:19:46;;;;;;;23.83;15.25;;;;;;;8.47;100.00;100963.38;5032412;28;20314;-76
2022/11/30 09:22:13;;;;;;;23.25;15.30;;;;;;;8.48;100.00;100965.16;5036525;28;20202;-76
2022/11/30 09:24:40;;;;;;;24.50;15.73;;;;;;;8.52;100.00;100963.25;5043588;28;20269;-74
2022/11/30 09:27:06;;;;;;;24.30;16.75;;;;;;;8.56;100.00;100956.88;5048279;28;20244;-75
2022/11/30 09:29:33;;;;;;;26.70;16.08;;;;;;;8.60;100.00;100977.34;5036359;28;20661;-76
2022/11/30 09:32:01;;;;;;;24.85;16.40;;;;;;;8.62;100.00;100975.50;5036931;28;20206;-75
2022/11/30 09:34:28;;;;;;;30.77;17.55;;;;;;;8.68;100.00;100974.44;5037046;28;20202;-75
2022/11/30 09:36:56;;;;;;;29.48;16.55;;;;;;;8.69;100.00;100962.78;5037297;28;20278;-75
2022/11/30 09:39:23;;;;;;;32.00;17.58;;;;;;;8.75;100.00;100970.66;5035099;28;20646;-77
2022/11/30 09:42:13;;;;;;;28.80;17.17;;;;;;;8.71;100.00;100971.69;5036732;28;20288;-77
2022/11/30 09:44:51;;;;;;;32.22;17.30;;;;;;;8.74;100.00;100967.09;5036658;28;20208;-76
2022/11/30 09:47:37;;;;;;;33.30;18.60;;;;;;;8.80;100.00;100971.41;5036870;28;20233;-76
2022/11/30 09:50:12;;;;;;;34.17;19.25;;;;;;;8.81;100.00;100973.16;5036541;28;20190;-74
2022/11/30 09:52:44;;;;;;;38.40;20.67;;;;;;;8.80;100.00;100968.72;5036161;28;20181;-75
2022/11/30 09:55:14;;;;;;;30.92;18.23;;;;;;;8.74;100.00;100966.22;5037822;28;20288;-76
2022/11/30 09:57:46;;;;;;;43.65;20.00;;;;;;;8.71;100.00;100977.06;5036103;28;20790;-76
2022/11/30 10:00:15;;;;;;;43.63;21.00;;;;;;;8.69;100.00;100973.53;5036955;28;20198;-76
2022/11/30 10:02:42;;;;;;;43.55;21.55;;;;;;;8.74;100.00;100979.63;5036986;28;20212;-76
2022/11/30 10:05:13;;;;;;;39.88;19.83;;;;;;;8.74;100.00;100983.19;5038067;28;20193;-75
2022/11/30 10:07:55;;;;;;;41.13;21.20;;;;;;;8.70;100.00;100976.16;5036675;28;20229;-76
2022/11/30 10:10:33;;;;;;;44.65;21.23;;;;;;;8.70;100.00;100975.28;5035923;28;20291;-78
2022/11/30 10:13:13;;;;;;;43.10;21.23;;;;;;;8.67;100.00;100975.38;5034939;28;20269;-76
2022/11/30 10:15:53;;;;;;;44.95;22.20;;;;;;;8.62;100.00;100977.31;5036331;28;20196;-75
2022/11/30 10:18:29;;;;;;;43.22;21.52;;;;;;;8.63;100.00;100977.25;5036263;28;20273;-76
2022/11/30 10:21:03;;;;;;;38.42;22.10;;;;;;;8.60;100.00;100979.16;5037073;28;20193;-77
2022/11/30 10:23:44;;;;;;;39.28;20.77;;;;;;;8.64;100.00;100978.13;5036817;28;20186;-77
2022/11/30 10:26:15;;;;;;;37.72;20.83;;;;;;;8.70;100.00;100975.28;5037027;28;20248;-75
2022/11/30 10:28:50;;;;;;;45.45;22.58;;;;;;;8.66;100.00;100978.97;5035681;28;20213;-76
2022/11/30 10:31:18;;;;;;;39.45;21.50;;;;;;;8.64;100.00;100983.50;5035634;28;20194;-76
2022/11/30 10:33:47;;;;;;;36.80;20.20;;;;;;;8.55;100.00;100976.59;5037115;28;20202;-75
2022/11/30 10:36:26;;;;;;;35.63;20.85;;;;;;;8.54;100.00;100985.56;5037992;28;20220;-76
2022/11/30 10:38:59;;;;;;;32.92;19.42;;;;;;;8.61;100.00;100978.22;5036112;28;20292;-75
2022/11/30 10:41:31;;;;;;;28.65;18.77;;;;;;;8.52;100.00;100972.22;5036299;28;20205;-75
2022/11/30 10:44:02;;;;;;;29.20;18.48;;;;;;;8.40;100.00;100977.91;5035682;28;20234;-75
2022/11/30 10:46:34;;;;;;;33.33;19.30;;;;;;;8.38;100.00;100968.97;5036559;28;20313;-77
2022/11/30 10:49:04;;;;;;;25.17;17.65;;;;;;;8.39;100.00;100967.16;5035601;28;20302;-74
2022/11/30 10:51:34;;;;;;;26.63;19.17;;;;;;;8.42;100.00;100975.19;5037131;28;20197;-75
2022/11/30 10:54:05;;;;;;;27.33;18.45;;;;;;;8.31;100.00;100976.31;5035446;28;20216;-79
2022/11/30 10:56:32;;;;;;;26.33;18.40;;;;;;;8.29;100.00;100970.09;5036645;28;20221;-76
2022/11/30 10:59:02;;;;;;;27.90;19.27;;;;;;;8.31;100.00;100973.63;5036004;28;20293;-76
2022/11/30 11:01:32;;;;;;;26.73;19.40;;;;;;;8.34;100.00;100978.91;5051129;28;20273;-77
2022/11/30 11:04:13;;;;;;;25.20;18.40;;;;;;;8.40;100.00;100971.63;5053768;28;20220;-76
2022/11/30 11:06:44;;;;;;;24.35;17.27;;;;;;;8.44;100.00;100968.84;5046614;28;20237;-76
2022/11/30 11:09:34;;;;;;;28.38;19.05;;;;;;;8.47;100.00;100973.25;5034991;28;20206;-76
2022/11/30 11:12:03;;;;;;;24.27;17.50;;;;;;;8.48;100.00;100961.56;5031938;28;20225;-77
2022/11/30 11:14:31;;;;;;;21.73;17.13;;;;;;;8.55;100.00;100958.69;5036397;28;20229;-75
2022/11/30 11:16:59;;;;;;;26.77;17.10;;;;;;;8.40;100.00;100961.78;5038916;28;20233;-77